sensor_id;sensor_type;location;lat;lon;timestamp;pressure;altitude;pressure_sealevel;temperature;humidity
17230;BME280;8731;50.364;8.958;2024-03-08T00:03:19;100306.56;;;3.90;73.73
17230;BME280;8731;50.364;8.958;2024-03-08T00:07:42;100309.25;;;3.98;73.71
17230;BME280;8731;50.364;8.958;2024-03-08T00:12:04;100309.41;;;3.79;74.37
17230;BME280;8731;50.364;8.958;2024-03-08T00:16:27;100309.25;;;3.91;73.49
17230;BME280;8731;50.364;8.958;2024-03-08T00:20:50;100301.16;;;3.87;73.89
17230;BME280;8731;50.364;8.958;2024-03-08T00:25:12;100301.13;;;3.80;73.44
17230;BME280;8731;50.364;8.958;2024-03-08T00:29:35;100301.13;;;3.80;74.46
17230;BME280;8731;50.364;8.958;2024-03-08T00:33:58;100304.69;;;3.67;74.56
17230;BME280;8731;50.364;8.958;2024-03-08T00:38:22;100301.44;;;3.68;73.90
17230;BME280;8731;50.364;8.958;2024-03-08T05:24:17;100109.31;;;2.30;80.67
17230;BME280;8731;50.364;8.958;2024-03-08T05:28:40;100102.84;;;2.25;81.53
17230;BME280;8731;50.364;8.958;2024-03-08T05:33:03;100096.19;;;2.26;80.35
17230;BME280;8731;50.364;8.958;2024-03-08T05:37:25;100100.81;;;2.15;80.59
17230;BME280;8731;50.364;8.958;2024-03-08T05:41:50;100095.66;;;2.21;80.90
17230;BME280;8731;50.364;8.958;2024-03-08T05:46:15;100100.63;;;2.14;80.45
17230;BME280;8731;50.364;8.958;2024-03-08T05:50:39;100097.50;;;2.02;82.17
17230;BME280;8731;50.364;8.958;2024-03-08T05:55:04;100102.72;;;2.11;82.33
17230;BME280;8731;50.364;8.958;2024-03-08T05:59:29;100094.81;;;2.08;81.84
17230;BME280;8731;50.364;8.958;2024-03-08T06:03:51;100094.41;;;1.98;85.05
17230;BME280;8731;50.364;8.958;2024-03-08T06:08:16;100099.66;;;2.06;82.82
17230;BME280;8731;50.364;8.958;2024-03-08T06:23:17;100112.66;;;2.17;83.91
17230;BME280;8731;50.364;8.958;2024-03-08T06:27:39;100103.84;;;2.13;84.48
17230;BME280;8731;50.364;8.958;2024-03-08T06:32:03;100094.94;;;2.22;84.00
17230;BME280;8731;50.364;8.958;2024-03-08T06:36:25;100099.53;;;2.39;82.92
17230;BME280;8731;50.364;8.958;2024-03-08T06:40:50;100097.56;;;2.43;82.83
17230;BME280;8731;50.364;8.958;2024-03-08T06:45:12;100094.91;;;2.56;82.25
17230;BME280;8731;50.364;8.958;2024-03-08T06:49:39;100098.56;;;2.65;83.10
17230;BME280;8731;50.364;8.958;2024-03-08T06:54:01;100085.31;;;2.81;82.73
17230;BME280;8731;50.364;8.958;2024-03-08T06:58:30;100094.72;;;3.03;82.27
17230;BME280;8731;50.364;8.958;2024-03-08T07:02:54;100084.56;;;3.73;79.23
17230;BME280;8731;50.364;8.958;2024-03-08T07:07:17;100071.38;;;4.25;78.91
17230;BME280;8731;50.364;8.958;2024-03-08T07:11:43;100077.16;;;4.75;77.42
17230;BME280;8731;50.364;8.958;2024-03-08T07:16:08;100065.13;;;5.03;75.23
17230;BME280;8731;50.364;8.958;2024-03-08T07:20:32;100063.25;;;5.39;73.53
17230;BME280;8731;50.364;8.958;2024-03-08T07:24:55;100060.16;;;5.87;71.63
17230;BME280;8731;50.364;8.958;2024-03-08T07:29:37;100057.06;;;6.28;70.38
17230;BME280;8731;50.364;8.958;2024-03-08T07:34:01;100049.81;;;6.31;68.22
17230;BME280;8731;50.364;8.958;2024-03-08T07:38:27;100042.16;;;7.19;67.37
17230;BME280;8731;50.364;8.958;2024-03-08T07:42:50;100039.06;;;7.21;65.63
17230;BME280;8731;50.364;8.958;2024-03-08T07:47:12;100037.44;;;7.55;64.66
17230;BME280;8731;50.364;8.958;2024-03-08T07:51:36;100022.81;;;7.85;63.76
17230;BME280;8731;50.364;8.958;2024-03-08T07:55:58;100030.94;;;8.07;63.02
17230;BME280;8731;50.364;8.958;2024-03-08T08:00:22;100021.31;;;8.64;64.13
17230;BME280;8731;50.364;8.958;2024-03-08T08:04:47;100020.72;;;8.66;60.78
17230;BME280;8731;50.364;8.958;2024-03-08T08:09:11;100016.22;;;8.89;60.05
17230;BME280;8731;50.364;8.958;2024-03-08T08:13:35;100013.84;;;8.65;59.93
17230;BME280;8731;50.364;8.958;2024-03-08T08:17:57;100002.25;;;9.29;59.74
17230;BME280;8731;50.364;8.958;2024-03-08T08:22:20;99996.63;;;9.06;58.01
17230;BME280;8731;50.364;8.958;2024-03-08T08:26:44;99982.31;;;9.70;58.97
17230;BME280;8731;50.364;8.958;2024-03-08T08:31:06;99977.41;;;10.26;58.52
17230;BME280;8731;50.364;8.958;2024-03-08T08:35:28;99970.09;;;9.66;56.72
17230;BME280;8731;50.364;8.958;2024-03-08T08:39:50;99957.44;;;10.50;56.35
17230;BME280;8731;50.364;8.958;2024-03-08T08:44:15;99958.88;;;10.37;55.77
17230;BME280;8731;50.364;8.958;2024-03-08T08:48:38;99959.53;;;10.07;55.98
17230;BME280;8731;50.364;8.958;2024-03-08T08:53:01;99948.09;;;11.17;55.28
17230;BME280;8731;50.364;8.958;2024-03-08T08:57:27;99943.34;;;10.53;54.87
17230;BME280;8731;50.364;8.958;2024-03-08T09:01:51;99936.69;;;11.52;53.74
17230;BME280;8731;50.364;8.958;2024-03-08T09:06:14;99932.41;;;11.82;54.78
17230;BME280;8731;50.364;8.958;2024-03-08T09:10:36;99921.69;;;12.06;51.61
17230;BME280;8731;50.364;8.958;2024-03-08T09:14:59;99917.44;;;11.76;51.96
17230;BME280;8731;50.364;8.958;2024-03-08T09:19:24;99907.88;;;11.74;51.05
17230;BME280;8731;50.364;8.958;2024-03-08T09:23:46;99913.84;;;11.54;50.32
17230;BME280;8731;50.364;8.958;2024-03-08T09:28:09;99891.16;;;12.28;50.15
17230;BME280;8731;50.364;8.958;2024-03-08T09:32:32;99885.56;;;11.51;52.60
17230;BME280;8731;50.364;8.958;2024-03-08T09:36:56;99889.00;;;12.33;50.76
17230;BME280;8731;50.364;8.958;2024-03-08T09:41:18;99888.25;;;12.13;51.86
17230;BME280;8731;50.364;8.958;2024-03-08T09:45:42;99860.97;;;12.12;50.94
17230;BME280;8731;50.364;8.958;2024-03-08T09:50:07;99858.00;;;12.50;49.61
17230;BME280;8731;50.364;8.958;2024-03-08T09:54:34;99845.19;;;13.36;50.18
17230;BME280;8731;50.364;8.958;2024-03-08T09:58:57;99833.84;;;13.32;49.80
17230;BME280;8731;50.364;8.958;2024-03-08T10:03:41;99824.03;;;13.72;49.57
17230;BME280;8731;50.364;8.958;2024-03-08T10:08:05;99820.38;;;13.01;49.49
17230;BME280;8731;50.364;8.958;2024-03-08T10:12:28;99817.00;;;12.26;47.78
17230;BME280;8731;50.364;8.958;2024-03-08T10:16:52;99816.13;;;12.58;48.11
17230;BME280;8731;50.364;8.958;2024-03-08T10:21:14;99809.78;;;12.43;48.14
17230;BME280;8731;50.364;8.958;2024-03-08T10:25:37;99801.81;;;12.82;47.76
17230;BME280;8731;50.364;8.958;2024-03-08T10:30:01;99787.78;;;12.77;46.89
17230;BME280;8731;50.364;8.958;2024-03-08T10:34:25;99778.81;;;13.04;47.22
17230;BME280;8731;50.364;8.958;2024-03-08T10:38:51;99782.00;;;13.23;47.82
17230;BME280;8731;50.364;8.958;2024-03-08T10:43:21;99765.69;;;12.34;48.13
17230;BME280;8731;50.364;8.958;2024-03-08T10:47:49;99780.88;;;12.32;47.59
17230;BME280;8731;50.364;8.958;2024-03-08T10:52:22;99758.88;;;13.00;46.06
17230;BME280;8731;50.364;8.958;2024-03-08T10:56:45;99759.41;;;14.09;47.24
17230;BME280;8731;50.364;8.958;2024-03-08T11:01:10;99754.84;;;14.05;46.20
17230;BME280;8731;50.364;8.958;2024-03-08T11:05:37;99761.75;;;12.71;46.99
17230;BME280;8731;50.364;8.958;2024-03-08T11:10:04;99744.06;;;13.86;46.22
17230;BME280;8731;50.364;8.958;2024-03-08T11:14:43;99735.59;;;13.87;45.74
17230;BME280;8731;50.364;8.958;2024-03-08T11:19:26;99732.66;;;14.29;46.69
17230;BME280;8731;50.364;8.958;2024-03-08T11:24:00;99721.13;;;14.23;46.05
17230;BME280;8731;50.364;8.958;2024-03-08T11:28:24;99717.03;;;13.09;46.53
17230;BME280;8731;50.364;8.958;2024-03-08T11:32:47;99706.53;;;14.70;44.86
17230;BME280;8731;50.364;8.958;2024-03-08T11:37:13;99700.59;;;15.47;45.49
17230;BME280;8731;50.364;8.958;2024-03-08T11:41:39;99692.59;;;14.66;44.58
17230;BME280;8731;50.364;8.958;2024-03-08T11:46:07;99685.97;;;15.20;44.73
17230;BME280;8731;50.364;8.958;2024-03-08T11:50:30;99685.25;;;14.23;44.30
17230;BME280;8731;50.364;8.958;2024-03-08T11:54:54;99681.91;;;14.24;43.67
17230;BME280;8731;50.364;8.958;2024-03-08T11:59:20;99665.66;;;15.49;43.33
17230;BME280;8731;50.364;8.958;2024-03-08T12:03:42;99667.59;;;14.02;43.69
17230;BME280;8731;50.364;8.958;2024-03-08T12:08:05;99657.31;;;15.00;42.83
17230;BME280;8731;50.364;8.958;2024-03-08T12:12:32;99646.66;;;14.94;42.85
17230;BME280;8731;50.364;8.958;2024-03-08T12:16:57;99625.56;;;16.32;42.83
17230;BME280;8731;50.364;8.958;2024-03-08T12:21:21;99626.59;;;14.76;42.45
17230;BME280;8731;50.364;8.958;2024-03-08T12:25:46;99631.28;;;14.20;44.89
17230;BME280;8731;50.364;8.958;2024-03-08T12:30:18;99619.88;;;15.29;43.32
17230;BME280;8731;50.364;8.958;2024-03-08T12:34:51;99618.59;;;15.22;41.75
17230;BME280;8731;50.364;8.958;2024-03-08T12:39:16;99607.84;;;15.41;43.60
17230;BME280;8731;50.364;8.958;2024-03-08T12:43:43;99613.00;;;14.90;44.00
17230;BME280;8731;50.364;8.958;2024-03-08T12:48:12;99608.16;;;14.81;43.55
17230;BME280;8731;50.364;8.958;2024-03-08T12:52:37;99600.03;;;14.62;42.41
17230;BME280;8731;50.364;8.958;2024-03-08T12:56:59;99588.41;;;14.54;44.19
17230;BME280;8731;50.364;8.958;2024-03-08T13:01:26;99582.75;;;14.46;44.03
17230;BME280;8731;50.364;8.958;2024-03-08T13:05:49;99575.25;;;14.74;44.17
17230;BME280;8731;50.364;8.958;2024-03-08T13:10:15;99565.44;;;14.55;45.48
17230;BME280;8731;50.364;8.958;2024-03-08T13:14:40;99575.41;;;15.15;43.11
17230;BME280;8731;50.364;8.958;2024-03-08T13:19:02;99555.78;;;14.39;45.33
17230;BME280;8731;50.364;8.958;2024-03-08T13:23:25;99553.78;;;13.97;45.88
17230;BME280;8731;50.364;8.958;2024-03-08T13:27:49;99541.81;;;13.36;46.59
17230;BME280;8731;50.364;8.958;2024-03-08T13:32:11;99553.34;;;13.43;45.70
17230;BME280;8731;50.364;8.958;2024-03-08T13:36:34;99548.28;;;13.68;46.28
17230;BME280;8731;50.364;8.958;2024-03-08T13:41:03;99545.03;;;13.82;47.47
17230;BME280;8731;50.364;8.958;2024-03-08T13:45:26;99528.56;;;13.07;47.60
17230;BME280;8731;50.364;8.958;2024-03-08T13:49:49;99526.31;;;13.46;47.60
17230;BME280;8731;50.364;8.958;2024-03-08T13:54:12;99521.44;;;13.14;47.86
17230;BME280;8731;50.364;8.958;2024-03-08T13:58:36;99503.13;;;13.20;47.02
17230;BME280;8731;50.364;8.958;2024-03-08T14:03:02;99502.78;;;13.15;48.73
17230;BME280;8731;50.364;8.958;2024-03-08T14:07:25;99497.22;;;12.98;47.47
17230;BME280;8731;50.364;8.958;2024-03-08T14:11:51;99490.78;;;13.14;47.17
17230;BME280;8731;50.364;8.958;2024-03-08T14:16:15;99481.78;;;13.08;48.95
17230;BME280;8731;50.364;8.958;2024-03-08T14:20:39;99478.91;;;12.56;47.86
17230;BME280;8731;50.364;8.958;2024-03-08T14:25:02;99467.56;;;13.00;47.60
17230;BME280;8731;50.364;8.958;2024-03-08T14:29:25;99448.38;;;12.58;47.61
17230;BME280;8731;50.364;8.958;2024-03-08T14:33:50;99453.03;;;12.52;48.17
17230;BME280;8731;50.364;8.958;2024-03-08T14:38:14;99427.34;;;13.09;48.56
17230;BME280;8731;50.364;8.958;2024-03-08T14:42:41;99445.59;;;13.02;49.06
17230;BME280;8731;50.364;8.958;2024-03-08T14:47:04;99426.72;;;12.65;48.34
17230;BME280;8731;50.364;8.958;2024-03-08T14:51:27;99422.06;;;12.59;48.46
17230;BME280;8731;50.364;8.958;2024-03-08T14:55:51;99424.38;;;12.68;47.93
17230;BME280;8731;50.364;8.958;2024-03-08T15:00:14;99410.19;;;12.48;48.26
17230;BME280;8731;50.364;8.958;2024-03-08T15:04:47;99404.63;;;12.65;47.60
17230;BME280;8731;50.364;8.958;2024-03-08T15:09:17;99387.09;;;12.35;47.96
17230;BME280;8731;50.364;8.958;2024-03-08T15:13:41;99392.41;;;12.26;47.87
17230;BME280;8731;50.364;8.958;2024-03-08T15:18:05;99372.88;;;12.50;47.21
17230;BME280;8731;50.364;8.958;2024-03-08T15:22:28;99375.00;;;12.32;48.81
17230;BME280;8731;50.364;8.958;2024-03-08T15:26:51;99366.44;;;12.20;48.90
17230;BME280;8731;50.364;8.958;2024-03-08T15:31:17;99359.31;;;12.04;47.80
17230;BME280;8731;50.364;8.958;2024-03-08T15:35:41;99353.78;;;12.21;48.69
17230;BME280;8731;50.364;8.958;2024-03-08T15:40:10;99353.22;;;12.02;48.28
17230;BME280;8731;50.364;8.958;2024-03-08T15:44:41;99353.03;;;12.11;48.18
17230;BME280;8731;50.364;8.958;2024-03-08T15:49:05;99347.13;;;12.00;48.93
17230;BME280;8731;50.364;8.958;2024-03-08T15:53:29;99340.25;;;11.87;48.04
17230;BME280;8731;50.364;8.958;2024-03-08T15:57:51;99342.94;;;12.12;49.05
17230;BME280;8731;50.364;8.958;2024-03-08T16:02:15;99335.81;;;11.85;49.24
17230;BME280;8731;50.364;8.958;2024-03-08T16:06:40;99330.50;;;11.93;49.36
17230;BME280;8731;50.364;8.958;2024-03-08T16:11:05;99339.78;;;11.81;50.16
17230;BME280;8731;50.364;8.958;2024-03-08T16:15:28;99324.88;;;11.76;49.64
17230;BME280;8731;50.364;8.958;2024-03-08T16:19:50;99322.94;;;11.95;50.36
17230;BME280;8731;50.364;8.958;2024-03-08T16:24:17;99318.31;;;12.13;51.07
17230;BME280;8731;50.364;8.958;2024-03-08T16:28:40;99315.31;;;11.83;51.11
17230;BME280;8731;50.364;8.958;2024-03-08T16:33:04;99317.34;;;11.65;51.82
17230;BME280;8731;50.364;8.958;2024-03-08T16:37:27;99308.88;;;11.55;51.90
17230;BME280;8731;50.364;8.958;2024-03-08T16:41:51;99312.00;;;11.29;52.77
17230;BME280;8731;50.364;8.958;2024-03-08T16:46:14;99306.66;;;11.48;52.07
17230;BME280;8731;50.364;8.958;2024-03-08T16:50:36;99305.53;;;11.44;52.30
17230;BME280;8731;50.364;8.958;2024-03-08T16:55:02;99310.97;;;11.49;52.00
17230;BME280;8731;50.364;8.958;2024-03-08T16:59:27;99322.97;;;11.28;52.26
17230;BME280;8731;50.364;8.958;2024-03-08T17:03:53;99312.34;;;11.33;52.20
17230;BME280;8731;50.364;8.958;2024-03-08T17:08:15;99311.69;;;11.02;52.66
17230;BME280;8731;50.364;8.958;2024-03-08T17:12:38;99308.34;;;11.14;53.22
17230;BME280;8731;50.364;8.958;2024-03-08T17:17:02;99312.75;;;11.16;54.27
17230;BME280;8731;50.364;8.958;2024-03-08T17:21:25;99314.53;;;11.17;53.75
17230;BME280;8731;50.364;8.958;2024-03-08T17:25:48;99318.28;;;10.67;54.04
17230;BME280;8731;50.364;8.958;2024-03-08T17:30:13;99318.03;;;10.86;53.75
17230;BME280;8731;50.364;8.958;2024-03-08T17:34:44;99309.00;;;10.89;53.65
17230;BME280;8731;50.364;8.958;2024-03-08T17:39:06;99321.00;;;10.80;54.33
17230;BME280;8731;50.364;8.958;2024-03-08T17:43:38;99312.59;;;10.81;53.97
17230;BME280;8731;50.364;8.958;2024-03-08T17:48:02;99314.19;;;10.69;53.83
17230;BME280;8731;50.364;8.958;2024-03-08T17:52:26;99312.47;;;10.26;54.81
17230;BME280;8731;50.364;8.958;2024-03-08T17:56:50;99315.59;;;10.43;54.07
17230;BME280;8731;50.364;8.958;2024-03-08T18:01:15;99322.72;;;10.37;54.92
17230;BME280;8731;50.364;8.958;2024-03-08T18:05:38;99324.66;;;10.30;54.99
17230;BME280;8731;50.364;8.958;2024-03-08T18:10:05;99322.28;;;10.21;55.66
17230;BME280;8731;50.364;8.958;2024-03-08T18:14:28;99322.03;;;10.08;55.68
17230;BME280;8731;50.364;8.958;2024-03-08T18:18:52;99319.66;;;9.89;55.64
17230;BME280;8731;50.364;8.958;2024-03-08T18:23:15;99314.34;;;9.66;56.16
